createdAt,value
2018-02-27T02:46:43.148Z,7.30
2018-02-27T02:49:14.435Z,10.15
2018-02-27T02:51:43.491Z,8.05
2018-02-27T06:27:10.908Z,9.88
2018-02-27T06:29:40.733Z,9.05
2018-02-27T06:32:09.841Z,10.02
2018-02-27T06:34:40.788Z,12.88
2018-02-27T07:22:11.098Z,9.70
2018-02-27T08:28:46.231Z,16.08
2018-02-27T08:31:16.223Z,15.30
2018-02-27T08:33:46.462Z,14.05
2018-02-27T08:36:15.772Z,16.58
2018-02-27T08:38:45.858Z,15.15
2018-02-27T08:41:14.841Z,17.70
2018-02-27T08:43:44.881Z,13.25
2018-02-27T08:46:14.922Z,19.52
2018-02-27T08:48:44.873Z,13.50
2018-02-27T08:51:15.802Z,16.62
2018-02-27T08:53:46.142Z,14.35
2018-02-27T08:56:15.026Z,19.52
2018-02-27T08:58:44.478Z,17.10
2018-02-27T09:01:13.621Z,14.63
2018-02-27T09:03:43.016Z,14.40
2018-02-27T09:06:12.937Z,10.43
2018-02-27T09:08:42.723Z,15.07
2018-02-27T09:11:13.020Z,13.93
2018-02-27T09:13:42.774Z,12.40
2018-02-27T09:16:13.533Z,16.55
2018-02-27T09:18:43.598Z,18.30
2018-02-27T09:21:13.620Z,23.92
2018-02-27T09:23:44.235Z,20.58
2018-02-27T09:26:13.280Z,24.48
2018-02-27T09:28:44.037Z,25.55
2018-02-27T09:31:14.676Z,33.70
2018-02-27T09:33:45.065Z,54.88
2018-02-27T09:36:14.162Z,74.85
2018-02-27T09:38:46.153Z,51.28
2018-02-27T09:41:17.576Z,46.97
2018-02-27T09:43:48.523Z,22.20
2018-02-27T09:46:20.321Z,34.03
2018-02-27T09:48:50.785Z,32.15
2018-02-27T09:51:20.500Z,17.35
2018-02-27T09:53:50.116Z,23.65
2018-02-27T09:56:20.206Z,20.20
2018-02-27T09:58:49.807Z,18.50
2018-02-27T10:01:19.831Z,14.50
2018-02-27T10:03:51.788Z,14.18
2018-02-27T10:06:21.140Z,16.73
2018-02-27T10:08:51.753Z,19.35
2018-02-27T16:46:35.212Z,27.55
2018-02-27T16:49:05.231Z,18.30
2018-02-27T16:51:35.131Z,18.87
2018-02-27T16:54:04.447Z,14.27
2018-02-27T16:56:33.723Z,19.92
2018-02-27T16:59:04.029Z,27.52
2018-02-27T17:01:33.370Z,21.75
2018-02-27T17:04:02.622Z,23.55
2018-02-27T17:06:31.828Z,21.77
2018-02-27T17:09:02.752Z,19.37
2018-02-27T17:11:33.744Z,23.45
2018-02-27T17:14:02.996Z,22.87
2018-02-27T17:16:32.244Z,28.30
2018-02-27T17:19:02.253Z,28.25
2018-02-27T17:21:31.459Z,17.75
2018-02-27T17:24:01.744Z,21.33
2018-02-27T17:26:30.819Z,17.77
2018-02-27T17:28:59.959Z,20.70
2018-02-27T17:31:31.042Z,21.55
2018-02-27T17:34:00.394Z,18.87
2018-02-27T17:36:30.218Z,19.58
2018-02-27T17:39:00.539Z,19.98
2018-02-27T17:41:32.360Z,23.38
2018-02-27T17:44:02.884Z,20.58
2018-02-27T17:46:36.523Z,17.85
2018-02-27T17:49:19.509Z,23.75
2018-02-27T17:51:55.860Z,21.80
2018-02-27T17:54:30.094Z,20.75
2018-02-27T17:57:03.645Z,26.10
2018-02-27T17:59:34.029Z,18.98
2018-02-27T18:02:03.698Z,24.92
2018-02-27T18:04:33.197Z,22.70
2018-02-27T18:07:05.471Z,21.83
2018-02-27T18:09:34.900Z,19.62
2018-02-27T18:12:05.098Z,16.67
2018-02-27T18:14:34.407Z,25.65
2018-02-27T18:17:03.704Z,19.33
2018-02-27T18:19:33.026Z,17.87
2018-02-27T18:22:05.363Z,15.50
2018-02-27T18:24:36.181Z,19.17
2018-02-27T18:27:05.974Z,17.90
2018-02-27T18:29:35.189Z,15.15
2018-02-27T18:32:04.786Z,25.42
2018-02-27T18:34:34.029Z,13.70
2018-02-27T18:37:04.034Z,23.40
2018-02-27T18:39:33.015Z,19.62
2018-02-27T18:42:01.999Z,25.08
2018-02-27T18:44:33.899Z,23.60
2018-02-27T18:47:03.415Z,18.35
2018-02-27T18:49:32.773Z,16.50
2018-02-27T18:52:02.075Z,17.10
2018-02-27T18:54:31.251Z,20.42
2018-02-27T18:57:00.396Z,24.05
2018-02-27T18:59:31.305Z,22.75
2018-02-27T19:02:00.692Z,22.42
2018-02-27T19:04:30.110Z,28.38
2018-02-27T19:06:59.133Z,11.93
2018-02-27T19:09:28.221Z,20.05
2018-02-27T19:11:57.434Z,18.77
2018-02-27T19:14:26.806Z,20.33
2018-02-27T19:16:56.736Z,25.80
2018-02-27T19:19:25.928Z,20.15
2018-02-27T19:21:56.973Z,18.75
2018-02-27T19:24:26.128Z,14.98
2018-02-27T19:26:56.384Z,20.45
2018-02-27T19:29:25.557Z,20.20
2018-02-27T19:31:55.624Z,23.45
2018-02-27T19:34:25.035Z,15.52
2018-02-27T19:36:56.149Z,18.27
2018-02-27T19:39:26.096Z,16.83
2018-02-27T19:41:55.365Z,16.42
2018-02-27T19:44:24.561Z,17.40
2018-02-27T19:46:53.862Z,18.48
2018-02-27T19:49:23.107Z,19.20
2018-02-27T19:51:54.510Z,16.65
2018-02-27T19:54:23.705Z,16.00
2018-02-27T19:56:53.863Z,15.93
2018-02-27T19:59:23.126Z,21.80
2018-02-27T20:01:53.513Z,24.55
2018-02-27T20:04:23.016Z,18.12
2018-02-27T20:06:52.207Z,16.10
2018-02-27T20:09:22.628Z,16.52
2018-02-27T20:11:51.706Z,19.37
2018-02-27T20:14:29.488Z,24.80
2018-02-27T20:16:59.194Z,23.10
2018-02-27T20:19:33.868Z,20.00
2018-02-27T20:22:05.883Z,22.80
2018-02-27T20:24:35.981Z,18.70
2018-02-27T20:27:05.867Z,21.98
2018-02-27T20:29:35.921Z,15.32
2018-02-27T20:32:06.454Z,20.08
2018-02-27T20:34:36.261Z,22.42
2018-02-27T20:37:05.535Z,17.33
2018-02-27T20:39:35.942Z,18.90
2018-02-27T20:42:05.912Z,22.17
2018-02-27T20:44:35.974Z,22.50
2018-02-27T20:47:06.918Z,18.05
2018-02-27T20:49:36.317Z,19.30
2018-02-27T20:52:05.494Z,15.77
2018-02-27T20:54:37.777Z,26.30
2018-02-27T20:57:07.441Z,22.30
2018-02-27T20:59:36.587Z,18.15
2018-02-27T21:02:06.617Z,19.65
2018-02-27T21:04:37.890Z,18.85
2018-02-27T21:07:07.028Z,20.37
2018-02-27T21:09:38.739Z,14.07
2018-02-27T21:12:08.018Z,20.95
2018-02-27T21:14:39.408Z,20.75
2018-02-27T21:17:10.020Z,21.98
2018-02-27T21:19:39.412Z,21.77
2018-02-27T21:22:10.661Z,17.02
2018-02-27T21:24:40.319Z,19.10
2018-02-27T21:27:10.365Z,13.20
2018-02-27T21:29:40.417Z,18.90
2018-02-27T21:32:09.523Z,25.10
2018-02-27T21:34:38.713Z,16.42
2018-02-27T21:37:09.620Z,13.45
2018-02-27T21:39:38.999Z,8.40
2018-02-27T21:42:09.204Z,25.25
2018-02-27T21:44:41.577Z,16.73
2018-02-27T21:47:10.688Z,18.85
2018-02-27T21:49:40.223Z,21.98
2018-02-27T21:52:09.623Z,25.77
2018-02-27T21:54:38.823Z,18.17
2018-02-27T21:57:08.226Z,21.00
2018-02-27T21:59:37.646Z,20.60
2018-02-27T22:02:06.959Z,21.20
2018-02-27T22:04:36.163Z,16.27
2018-02-27T22:07:05.345Z,28.95
2018-02-27T22:09:34.764Z,26.23
2018-02-27T22:12:04.098Z,28.73
2018-02-27T22:14:36.051Z,19.73
2018-02-27T22:17:08.972Z,15.60
2018-02-27T22:22:16.235Z,18.60
2018-02-27T22:24:47.609Z,25.33
2018-02-27T22:27:16.743Z,15.02
2018-02-27T22:29:45.998Z,11.40
2018-02-27T22:32:15.088Z,20.50
2018-02-27T22:34:44.822Z,16.20
2018-02-27T22:37:14.554Z,13.20
2018-02-27T22:39:43.734Z,22.67
2018-02-27T22:44:50.965Z,17.10
2018-02-27T22:47:20.302Z,15.20
2018-02-27T22:49:53.548Z,20.65
2018-02-27T22:52:23.478Z,20.80
2018-02-27T22:54:52.698Z,21.10
2018-02-27T22:57:24.503Z,13.38
2018-02-27T22:59:53.990Z,18.27
2018-02-27T23:02:23.964Z,11.70
2018-02-27T23:04:56.019Z,20.27
2018-02-27T23:10:40.139Z,14.25
2018-02-27T23:13:09.445Z,12.02
2018-02-27T23:15:41.078Z,15.90
2018-02-27T23:18:11.203Z,13.75
2018-02-27T23:20:40.412Z,13.05
2018-02-27T23:23:13.781Z,11.45
2018-02-27T23:25:58.037Z,17.75
2018-02-27T23:28:34.275Z,14.93
2018-02-27T23:31:08.525Z,15.40
2018-02-27T23:33:49.147Z,15.57
2018-02-27T23:36:20.220Z,17.60
2018-02-27T23:41:25.205Z,16.17
2018-02-27T23:43:54.554Z,17.60
2018-02-27T23:48:59.275Z,13.13
2018-02-27T23:51:28.439Z,15.25
2018-02-27T23:53:58.643Z,15.23
2018-02-27T23:56:27.816Z,13.25
2018-02-27T23:58:57.096Z,14.50
